createdAt,value
2019-02-22T00:02:46.192Z,83.38
2019-02-22T00:07:50.346Z,82.73
2019-02-22T00:12:54.367Z,82.35
2019-02-22T00:17:58.378Z,82.85
2019-02-22T00:23:02.398Z,82.45
2019-02-22T00:28:06.430Z,82.44
2019-02-22T00:33:10.469Z,82.15
2019-02-22T00:38:14.511Z,82.16
2019-02-22T00:43:18.551Z,82.26
2019-02-22T00:48:22.571Z,81.83
2019-02-22T00:53:26.585Z,81.75
2019-02-22T00:58:36.057Z,81.91
2019-02-22T01:03:40.198Z,82.35
2019-02-22T01:08:44.197Z,82.33
2019-02-22T01:13:48.280Z,82.01
2019-02-22T01:18:52.326Z,81.53
2019-02-22T01:23:56.414Z,81.58
2019-02-22T01:29:00.429Z,81.89
2019-02-22T01:34:04.442Z,82.65
2019-02-22T01:39:08.473Z,82.17
2019-02-22T01:44:22.648Z,82.63
2019-02-22T01:49:26.669Z,82.47
2019-02-22T01:54:30.706Z,82.27
2019-02-22T01:59:34.716Z,82.17
2019-02-22T02:04:38.738Z,81.94
2019-02-22T02:09:42.746Z,81.77
2019-02-22T02:14:46.820Z,82.01
2019-02-22T02:19:50.847Z,82.26
2019-02-22T02:24:54.872Z,82.29
2019-02-22T02:29:58.890Z,81.80
2019-02-22T02:35:02.914Z,81.54
2019-02-22T02:40:07.466Z,81.62
2019-02-22T02:45:11.491Z,82.20
2019-02-22T02:50:17.385Z,80.93
2019-02-22T02:55:32.081Z,80.57
2019-02-22T03:00:36.093Z,80.19
2019-02-22T03:06:08.200Z,80.42
2019-02-22T03:11:20.683Z,80.57
2019-02-22T03:16:18.022Z,80.33
2019-02-22T03:21:22.022Z,80.72
2019-02-22T03:26:26.045Z,80.66
2019-02-22T03:31:30.114Z,80.19
2019-02-22T03:36:34.127Z,80.50
2019-02-22T03:41:38.144Z,79.42
2019-02-22T03:46:42.163Z,78.91
2019-02-22T03:51:46.173Z,78.87
2019-02-22T03:56:50.187Z,77.62
2019-02-22T04:01:54.192Z,77.32
2019-02-22T04:06:58.213Z,77.89
2019-02-22T04:12:02.213Z,77.14
2019-02-22T04:17:06.234Z,76.65
2019-02-22T04:22:10.254Z,76.42
2019-02-22T04:27:14.285Z,76.09
2019-02-22T04:32:18.304Z,73.97
2019-02-22T04:37:22.475Z,75.17
2019-02-22T04:42:26.524Z,75.18
2019-02-22T04:47:30.542Z,74.72
2019-02-22T04:52:34.542Z,75.27
2019-02-22T04:57:38.554Z,75.61
2019-02-22T05:02:42.600Z,76.08
2019-02-22T05:07:46.610Z,76.48
2019-02-22T05:12:50.608Z,76.89
2019-02-22T05:17:54.637Z,77.30
2019-02-22T05:23:03.855Z,77.48
2019-02-22T05:28:04.415Z,77.34
2019-02-22T05:33:08.450Z,77.82
2019-02-22T05:38:12.489Z,77.69
2019-02-22T05:43:16.564Z,78.62
2019-02-22T05:48:20.591Z,78.19
2019-02-22T05:53:24.624Z,78.31
2019-02-22T05:58:28.640Z,78.04
2019-02-22T06:03:32.644Z,77.43
2019-02-22T06:08:36.663Z,76.85
2019-02-22T06:13:40.681Z,75.67
2019-02-22T06:18:44.711Z,75.71
2019-02-22T06:23:49.046Z,75.03
2019-02-22T06:28:53.130Z,73.99
2019-02-22T06:33:57.142Z,73.89
2019-02-22T06:39:01.159Z,73.39
2019-02-22T06:44:05.163Z,71.96
2019-02-22T06:49:09.193Z,71.58
2019-02-22T06:54:13.205Z,72.25
2019-02-22T06:59:17.214Z,72.04
2019-02-22T07:04:21.235Z,71.01
2019-02-22T07:09:25.229Z,70.82
2019-02-22T07:14:29.548Z,69.06
2019-02-22T07:19:33.567Z,68.81
2019-02-22T07:24:37.680Z,67.51
2019-02-22T07:29:41.688Z,65.91
2019-02-22T07:34:45.775Z,63.51
2019-02-22T07:39:49.806Z,61.69
2019-02-22T07:44:53.825Z,61.19
2019-02-22T07:49:57.848Z,63.41
2019-02-22T07:55:01.890Z,64.65
2019-02-22T08:00:07.721Z,64.70
2019-02-22T08:05:11.833Z,65.61
2019-02-22T08:10:15.841Z,65.32
2019-02-22T08:15:19.899Z,65.35
2019-02-22T08:20:23.925Z,65.23
2019-02-22T08:25:27.954Z,65.26
2019-02-22T08:30:31.962Z,62.99
2019-02-22T08:35:35.986Z,61.74
2019-02-22T08:40:40.005Z,61.67
2019-02-22T08:45:44.066Z,60.56
2019-02-22T08:50:48.098Z,61.29
2019-02-22T08:55:52.149Z,59.14
2019-02-22T09:00:56.167Z,57.48
2019-02-22T09:06:00.193Z,56.01
2019-02-22T09:11:04.223Z,54.49
2019-02-22T09:16:08.224Z,54.86
2019-02-22T09:21:12.271Z,52.31
2019-02-22T09:26:16.300Z,52.10
2019-02-22T09:31:20.299Z,49.98
2019-02-22T09:36:24.312Z,48.25
2019-02-22T09:41:28.328Z,47.87
2019-02-22T09:46:32.359Z,45.11
2019-02-22T09:51:36.355Z,45.88
2019-02-22T09:56:40.451Z,44.62
2019-02-22T10:01:44.491Z,44.06
2019-02-22T10:06:48.499Z,42.24
2019-02-22T10:11:52.523Z,38.90
2019-02-22T10:16:56.532Z,36.59
2019-02-22T10:22:00.566Z,35.59
2019-02-22T10:27:04.747Z,34.54
2019-02-22T10:32:08.761Z,33.07
2019-02-22T10:37:12.820Z,31.27
2019-02-22T10:42:16.840Z,30.25
2019-02-22T10:47:20.877Z,28.01
2019-02-22T10:52:24.922Z,27.37
2019-02-22T10:57:28.933Z,26.53
2019-02-22T11:02:32.946Z,26.31
2019-02-22T11:07:37.366Z,26.51
2019-02-22T11:12:41.497Z,25.73
2019-02-22T11:17:45.945Z,26.10
2019-02-22T11:22:50.242Z,25.21
2019-02-22T11:27:54.332Z,25.17
2019-02-22T11:32:58.426Z,24.18
2019-02-22T11:38:02.455Z,24.23
2019-02-22T11:43:06.488Z,21.85
2019-02-22T11:48:10.498Z,20.99
2019-02-22T11:53:14.565Z,22.28
2019-02-22T11:58:18.667Z,22.13
2019-02-22T12:03:24.963Z,21.24
2019-02-22T12:08:28.556Z,21.61
2019-02-22T12:13:32.590Z,21.46
2019-02-22T12:18:37.301Z,21.08
2019-02-22T12:23:41.320Z,21.95
2019-02-22T12:28:45.333Z,20.77
2019-02-22T12:33:49.382Z,21.27
2019-02-22T12:38:53.410Z,19.71
2019-02-22T12:43:59.870Z,20.75
2019-02-22T12:49:03.168Z,20.92
2019-02-22T12:54:07.983Z,20.33
2019-02-22T12:59:12.012Z,20.58
2019-02-22T13:04:16.039Z,48.27
2019-02-22T13:09:20.078Z,22.08
2019-02-22T13:14:24.104Z,18.30
2019-02-22T13:19:28.142Z,19.45
2019-02-22T13:24:32.164Z,19.84
2019-02-22T13:29:36.185Z,20.05
2019-02-22T13:34:41.895Z,18.98
2019-02-22T13:39:45.885Z,19.32
2019-02-22T13:44:49.935Z,21.85
2019-02-22T13:49:54.023Z,24.89
2019-02-22T13:54:58.045Z,27.02
2019-02-22T14:00:02.071Z,27.28
2019-02-22T14:05:06.299Z,28.81
2019-02-22T14:10:10.337Z,29.91
2019-02-22T14:15:14.308Z,28.20
2019-02-22T14:20:18.384Z,29.08
2019-02-22T14:25:22.426Z,29.44
2019-02-22T14:30:26.613Z,30.56
2019-02-22T14:35:30.629Z,29.79
2019-02-22T14:40:35.551Z,30.69
2019-02-22T14:45:48.782Z,30.75
2019-02-22T14:50:45.381Z,31.49
2019-02-22T14:55:49.390Z,31.61
2019-02-22T15:00:53.446Z,31.00
2019-02-22T15:05:57.453Z,32.50
2019-02-22T15:11:01.480Z,32.13
2019-02-22T15:16:39.440Z,33.38
2019-02-22T15:21:43.480Z,35.01
2019-02-22T15:26:47.512Z,36.16
2019-02-22T15:31:51.524Z,36.64
2019-02-22T15:36:55.602Z,36.69
2019-02-22T15:41:59.624Z,35.40
2019-02-22T15:47:11.485Z,35.41
2019-02-22T15:52:10.369Z,36.17
2019-02-22T15:57:14.520Z,36.51
2019-02-22T16:02:18.522Z,36.80
2019-02-22T16:07:22.560Z,35.29
2019-02-22T16:12:26.604Z,36.20
2019-02-22T16:17:30.604Z,37.20
2019-02-22T16:22:34.635Z,37.75
2019-02-22T16:27:38.644Z,38.00
2019-02-22T16:32:42.667Z,38.06
2019-02-22T16:37:46.678Z,37.73
2019-02-22T16:42:50.681Z,37.67
2019-02-22T16:47:54.802Z,38.26
2019-02-22T16:52:58.813Z,37.76
2019-02-22T16:58:02.833Z,39.54
2019-02-22T17:03:06.873Z,38.37
2019-02-22T17:08:10.936Z,38.62
2019-02-22T17:13:15.036Z,38.29
2019-02-22T17:18:19.068Z,38.37
2019-02-22T17:23:23.090Z,38.01
2019-02-22T17:28:27.115Z,38.19
2019-02-22T17:33:31.260Z,37.59
2019-02-22T17:38:35.427Z,37.52
2019-02-22T17:43:39.427Z,37.89
2019-02-22T17:48:43.448Z,38.93
2019-02-22T17:53:47.494Z,40.15
2019-02-22T17:58:51.511Z,40.65
2019-02-22T18:03:55.546Z,41.68
2019-02-22T18:08:59.555Z,41.88
2019-02-22T18:14:03.591Z,42.39
2019-02-22T18:19:07.599Z,42.13
2019-02-22T18:24:11.626Z,41.78
2019-02-22T18:29:15.637Z,41.31
2019-02-22T18:34:19.659Z,41.81
2019-02-22T18:39:23.760Z,41.92
2019-02-22T18:44:27.776Z,42.01
2019-02-22T18:49:31.797Z,42.02
2019-02-22T18:54:35.812Z,41.73
2019-02-22T18:59:39.817Z,41.62
2019-02-22T19:04:43.960Z,41.98
2019-02-22T19:09:48.334Z,41.75
2019-02-22T19:14:52.679Z,41.87
2019-02-22T19:19:56.774Z,42.03
2019-02-22T19:25:01.124Z,42.19
2019-02-22T19:30:05.764Z,42.77
2019-02-22T19:35:09.830Z,42.63
2019-02-22T19:40:16.162Z,42.49
2019-02-22T19:45:20.311Z,42.94
2019-02-22T19:50:24.386Z,43.14
2019-02-22T19:55:28.493Z,43.29
2019-02-22T20:00:32.562Z,43.05
2019-02-22T20:05:36.609Z,42.91
2019-02-22T20:10:40.672Z,42.04
2019-02-22T20:15:44.761Z,41.91
2019-02-22T20:20:48.910Z,42.10
2019-02-22T20:25:53.197Z,42.21
2019-02-22T20:30:57.260Z,42.72
2019-02-22T20:36:01.320Z,41.46
2019-02-22T20:41:05.373Z,40.89
2019-02-22T20:46:09.529Z,40.94
2019-02-22T20:51:13.569Z,40.68
2019-02-22T20:56:17.623Z,39.62
2019-02-22T21:01:21.678Z,39.65
2019-02-22T21:06:25.716Z,39.62
2019-02-22T21:11:29.768Z,40.06
2019-02-22T21:16:33.815Z,40.04
2019-02-22T21:21:37.896Z,39.76
2019-02-22T21:26:41.926Z,39.97
2019-02-22T21:31:45.955Z,40.32
2019-02-22T21:36:50.003Z,40.46
2019-02-22T21:41:54.042Z,40.03
2019-02-22T21:46:58.067Z,41.15
2019-02-22T21:52:02.099Z,41.51
2019-02-22T21:57:06.108Z,41.61
2019-02-22T22:02:10.134Z,42.16
2019-02-22T22:07:14.192Z,41.81
2019-02-22T22:12:18.196Z,42.02
2019-02-22T22:17:22.219Z,42.23
2019-02-22T22:22:26.234Z,42.16
2019-02-22T22:27:30.262Z,42.63
2019-02-22T22:32:34.307Z,42.32
2019-02-22T22:37:38.315Z,42.59
2019-02-22T22:42:42.332Z,42.63
2019-02-22T22:47:46.349Z,43.11
2019-02-22T22:52:50.359Z,42.85
2019-02-22T22:57:54.372Z,43.64
2019-02-22T23:02:58.403Z,43.27
2019-02-22T23:08:02.431Z,43.76
2019-02-22T23:13:06.448Z,43.93
2019-02-22T23:18:10.513Z,43.94
2019-02-22T23:23:14.519Z,43.79
2019-02-22T23:28:18.528Z,44.02
2019-02-22T23:33:22.548Z,44.59
2019-02-22T23:38:28.128Z,44.47
2019-02-22T23:43:33.225Z,44.47
2019-02-22T23:48:37.258Z,44.55
2019-02-22T23:53:41.282Z,44.50
2019-02-22T23:58:45.287Z,44.55
